Weather History for Mammoth, CA

Change the Weather History Date:

Wednesday, May 16, 2012

  Actual Average Record
Temperature  
Mean Temperature 60 °F -  
Max Temperature 78 °F 61 °F 78 °F (2012)
Min Temperature 42 °F 48 °F 23 °F (2011)
Degree Days  
Heating Degree Days 5    
Growing Degree Days 10 (Base 50)    
Moisture  
Dew Point 24 °F    
Average Humidity 27    
Maximum Humidity 50    
Minimum Humidity 11    
Precipitation  
Precipitation 0.00 in - - ()
Sea Level Pressure  
Sea Level Pressure 30.19 in    
Wind  
Wind Speed 7 mph (West)    
Max Wind Speed 21 mph    
Max Gust Speed 30 mph    
Visibility 10 miles    
Events      
Averages and records for this station are not official NWS values.
T = Trace of Precipitation, MM = Missing Value Source: NWS Daily Summary

Daily Weather History Graph

Daily Weather History Graph

Search for Another Location

Airport:

Trip Planner

Search our weather history database for the weather conditions in past years. The results will help you decide how hot, cold, wet, or windy it might be!

Date:

Astronomy

May. 16, 2012 Rise Set
Actual Time 5:44 AM PDT 7:59 PM PDT
Civil Twilight 5:15 AM PDT 8:28 PM PDT
Nautical Twilight 4:39 AM PDT 9:05 PM PDT
Astronomical Twilight 3:59 AM PDT 9:44 PM PDT
Moon 3:12 AM PDT (5/16) 4:23 PM PDT (5/16)
Length of Visible Light 15h 13m
Length of Day
14h 14m
Waning Crescent, 15% of the Moon is Illuminated
May 16
Waning Crescent
May 20
New
May 28
First Quarter
Jun 4
Full
Jun 11
Last Quarter

Hourly Weather History & Observations

Time (PDT) Temp. Windchill Dew Point Humidity Pressure Visibility Wind Dir Wind Speed Gust Speed Precip Events Conditions
12:15 AM 50.0 °F - 26.6 °F 40% 30.22 in 10.0 mi West 9.2 mph - N/A   Clear
12:35 AM 50.0 °F - 26.6 °F 40% 30.22 in 10.0 mi West 6.9 mph - N/A   Clear
12:55 AM 50.0 °F - 26.6 °F 40% 30.22 in 10.0 mi NNW 3.5 mph - N/A   Clear
1:15 AM 50.0 °F - 26.6 °F 40% 30.22 in 10.0 mi North 3.5 mph - N/A   Clear
1:35 AM 48.2 °F - 26.6 °F 43% 30.21 in 10.0 mi Calm Calm - N/A   Clear
1:55 AM 46.4 °F 45.2 °F 24.8 °F 43% 30.22 in 10.0 mi NNW 3.5 mph - N/A   Clear
2:15 AM 44.6 °F 43.1 °F 24.8 °F 46% 30.21 in 10.0 mi NNW 3.5 mph - N/A   Clear
2:35 AM 46.4 °F 43.5 °F 24.8 °F 43% 30.21 in 10.0 mi NW 5.8 mph - N/A   Clear
2:55 AM 44.6 °F 42.2 °F 24.8 °F 46% 30.20 in 10.0 mi NNW 4.6 mph - N/A   Clear
3:15 AM 42.8 °F 41.1 °F 24.8 °F 49% 30.20 in 10.0 mi NW 3.5 mph - N/A   Clear
3:35 AM 44.6 °F - 24.8 °F 46% 30.21 in 10.0 mi Calm Calm - N/A   Clear
3:55 AM 46.4 °F 45.2 °F 26.6 °F 46% 30.20 in 10.0 mi WNW 3.5 mph - N/A   Clear
4:15 AM 44.6 °F - 26.6 °F 49% 30.21 in 10.0 mi Calm Calm - N/A   Clear
4:35 AM 44.6 °F 43.1 °F 26.6 °F 49% 30.21 in 10.0 mi NNW 3.5 mph - N/A   Clear
4:55 AM 46.4 °F - 26.6 °F 46% 30.21 in 10.0 mi Calm Calm - N/A   Clear
5:15 AM 44.6 °F 43.1 °F 26.6 °F 49% 30.21 in 10.0 mi North 3.5 mph - N/A   Clear
5:35 AM 46.4 °F 45.2 °F 26.6 °F 46% 30.21 in 10.0 mi NNW 3.5 mph - N/A   Clear
5:55 AM 44.6 °F 42.2 °F 26.6 °F 49% 30.21 in 10.0 mi West 4.6 mph - N/A   Clear
6:15 AM 44.6 °F - 26.6 °F 49% 30.21 in 10.0 mi Calm Calm - N/A   Clear
6:35 AM 44.6 °F - 26.6 °F 49% 30.22 in 10.0 mi Calm Calm - N/A   Clear
6:55 AM 46.4 °F - 28.4 °F 50% 30.22 in 10.0 mi Calm Calm - N/A   Clear
7:15 AM 48.2 °F - 28.4 °F 46% 30.23 in 10.0 mi West 3.5 mph - N/A   Clear
7:35 AM 53.6 °F - 30.2 °F 41% 30.23 in 10.0 mi NNE 3.5 mph - N/A   Clear
7:55 AM 55.4 °F - 32.0 °F 41% 30.23 in 10.0 mi Calm Calm - N/A   Clear
8:15 AM 59.0 °F - 30.2 °F 34% 30.24 in 10.0 mi WNW 4.6 mph - N/A   Clear
8:35 AM 62.6 °F - 30.2 °F 30% 30.24 in 10.0 mi Calm Calm - N/A   Clear
8:55 AM 64.4 °F - 28.4 °F 26% 30.24 in 10.0 mi Calm Calm - N/A   Clear
9:15 AM 68.0 °F - 26.6 °F 21% 30.24 in 10.0 mi Calm Calm - N/A   Clear
9:35 AM 69.8 °F - 26.6 °F 20% 30.24 in 10.0 mi West 4.6 mph - N/A   Clear
9:55 AM 69.8 °F - 24.8 °F 18% 30.23 in 10.0 mi Calm Calm - N/A   Clear
10:15 AM 71.6 °F - 21.2 °F 15% 30.22 in 10.0 mi West 4.6 mph - N/A   Clear
10:35 AM 71.6 °F - 21.2 °F 15% 30.22 in 10.0 mi West 10.4 mph - N/A   Clear
10:55 AM 73.4 °F - 19.4 °F 13% 30.22 in 10.0 mi West 11.5 mph 18.4 mph N/A   Clear
11:15 AM 73.4 °F - 19.4 °F 13% 30.22 in 10.0 mi SW 8.1 mph - N/A   Clear
11:35 AM 75.2 °F - 21.2 °F 13% 30.21 in 10.0 mi Calm Calm - N/A   Clear
11:55 AM 75.2 °F - 21.2 °F 13% 30.20 in 10.0 mi West 8.1 mph 21.9 mph N/A   Clear
12:15 PM 75.2 °F - 21.2 °F 13% 30.20 in 10.0 mi SW 3.5 mph - N/A   Clear
12:35 PM 75.2 °F - 21.2 °F 13% 30.19 in 10.0 mi Calm Calm - N/A   Clear
12:55 PM 77.0 °F - 19.4 °F 12% 30.19 in 10.0 mi WSW 12.7 mph 23.0 mph N/A   Clear
1:15 PM 77.0 °F - 19.4 °F 12% 30.18 in 10.0 mi WNW 17.3 mph 21.9 mph N/A   Clear
1:35 PM 78.8 °F - 19.4 °F 11% 30.18 in 10.0 mi WNW 10.4 mph 18.4 mph N/A   Clear
1:55 PM 78.8 °F - 19.4 °F 11% 30.18 in 10.0 mi West 13.8 mph 20.7 mph N/A   Clear
2:15 PM 77.0 °F - 21.2 °F 12% 30.17 in 10.0 mi NW 11.5 mph 20.7 mph N/A   Clear
2:35 PM 77.0 °F - 23.0 °F 13% 30.17 in 10.0 mi West 17.3 mph 29.9 mph N/A   Clear
2:55 PM 78.8 °F - 23.0 °F 13% 30.16 in 10.0 mi West 13.8 mph 23.0 mph N/A   Clear
3:15 PM 77.0 °F - 19.4 °F 12% 30.16 in 10.0 mi West 11.5 mph 25.3 mph N/A   Clear
3:35 PM 77.0 °F - 24.8 °F 14% 30.16 in 10.0 mi West 18.4 mph 26.5 mph N/A   Clear
3:55 PM 77.0 °F - 23.0 °F 13% 30.15 in 10.0 mi WSW 10.4 mph 24.2 mph N/A   Clear
4:15 PM 77.0 °F - 26.6 °F 16% 30.14 in 10.0 mi West 16.1 mph 24.2 mph N/A   Clear
4:35 PM 77.0 °F - 24.8 °F 14% 30.14 in 10.0 mi West 18.4 mph 25.3 mph N/A   Clear
4:55 PM 77.0 °F - 24.8 °F 14% 30.14 in 10.0 mi West 20.7 mph 25.3 mph N/A   Clear
5:15 PM 75.2 °F - 24.8 °F 15% 30.14 in 10.0 mi West 19.6 mph 27.6 mph N/A   Clear
5:35 PM 73.4 °F - 28.4 °F 19% 30.14 in 10.0 mi WSW 16.1 mph 28.8 mph N/A   Clear
5:55 PM 73.4 °F - 32.0 °F 22% 30.14 in 10.0 mi West 17.3 mph 25.3 mph N/A   Clear
6:15 PM 71.6 °F - 32.0 °F 23% 30.14 in 10.0 mi WSW 12.7 mph 24.2 mph N/A   Clear
6:35 PM 71.6 °F - 32.0 °F 23% 30.14 in 10.0 mi WSW 4.6 mph - N/A   Clear
6:55 PM 69.8 °F - 32.0 °F 25% 30.14 in 10.0 mi SSW 18.4 mph 27.6 mph N/A   Clear
7:15 PM 68.0 °F - 32.0 °F 26% 30.14 in 10.0 mi SSW 18.4 mph 24.2 mph N/A   Clear
7:35 PM 68.0 °F - 30.2 °F 24% 30.14 in 10.0 mi SW 15.0 mph 23.0 mph N/A   Clear
7:55 PM 66.2 °F - 32.0 °F 28% 30.15 in 10.0 mi SW 11.5 mph 26.5 mph N/A   Clear
8:15 PM 64.4 °F - 28.4 °F 26% 30.15 in 10.0 mi West 9.2 mph 24.2 mph N/A   Clear
8:35 PM 64.4 °F - 23.0 °F 21% 30.15 in 10.0 mi West 11.5 mph 26.5 mph N/A   Clear
8:55 PM 64.4 °F - 17.6 °F 16% 30.15 in 10.0 mi NW 10.4 mph 23.0 mph N/A   Clear
9:15 PM 64.4 °F - 12.2 °F 13% 30.15 in 10.0 mi SW 17.3 mph 26.5 mph N/A   Clear
9:35 PM 64.4 °F - 12.2 °F 13% 30.16 in 10.0 mi WSW 13.8 mph 27.6 mph N/A   Clear
9:55 PM 62.6 °F - 10.4 °F 13% 30.16 in 10.0 mi SW 9.2 mph 24.2 mph N/A   Clear
10:15 PM 59.0 °F - 12.2 °F 16% 30.16 in 10.0 mi Calm Calm - N/A   Clear
10:35 PM 62.6 °F - 8.6 °F 12% 30.16 in 10.0 mi SW 5.8 mph - N/A   Clear
11:15 PM 57.2 °F - 26.6 °F 31% 30.16 in 10.0 mi South 5.8 mph - N/A   Clear
11:35 PM 59.0 °F - 15.8 °F 19% 30.16 in 10.0 mi SE 8.1 mph - N/A   Clear
11:55 PM 55.4 °F - 30.2 °F 38% 30.16 in 10.0 mi ENE 6.9 mph - N/A   Clear